Time;durP1;ratioP1;P1;durP2;ratioP2;P2;SDS_P1;SDS_P2;PMS_P1;PMS_P2;Temp;Humidity;BMP_temperature;BMP_pressure;BME280_temperature;BME280_humidity;BME280_pressure;Samples;Min_cycle;Max_cycle;Signal;HPM_P1;HPM_P2
2023/07/19 00:01:47;;;;;;;5.10;4.10;;;18.30;99.90;;;;;;5035832;28;20430;-71
2023/07/19 00:04:15;;;;;;;4.93;3.33;;;18.30;99.90;;;;;;5037088;28;20782;-71
2023/07/19 00:06:44;;;;;;;4.23;3.47;;;18.30;99.90;;;;;;5037124;28;20431;-71
2023/07/19 00:09:12;;;;;;;4.47;4.10;;;18.30;99.90;;;;;;5037120;28;20435;-72
2023/07/19 00:11:40;;;;;;;4.90;4.40;;;18.20;99.90;;;;;;5036861;28;20439;-71
2023/07/19 00:14:08;;;;;;;4.77;4.27;;;18.20;99.90;;;;;;5035649;28;20449;-71
2023/07/19 00:16:38;;;;;;;4.80;4.30;;;18.20;99.90;;;;;;5035785;28;20569;-72
2023/07/19 00:19:06;;;;;;;4.20;3.77;;;18.20;99.90;;;;;;5037070;28;20443;-71
2023/07/19 00:21:47;;;;;;;3.60;3.30;;;18.20;99.90;;;;;;5036949;28;20862;-71
2023/07/19 00:24:16;;;;;;;5.40;3.80;;;18.20;99.90;;;;;;5037109;28;20434;-71
2023/07/19 00:26:45;;;;;;;3.90;3.60;;;18.20;99.90;;;;;;5036552;28;20535;-71
2023/07/19 00:29:13;;;;;;;4.30;3.90;;;18.20;99.90;;;;;;5037045;28;20485;-71
2023/07/19 00:31:43;;;;;;;5.00;4.07;;;18.20;99.90;;;;;;5035241;28;21010;-71
2023/07/19 00:34:12;;;;;;;4.60;3.90;;;18.20;99.90;;;;;;5035911;28;20416;-71
2023/07/19 00:36:42;;;;;;;4.63;4.23;;;18.20;99.90;;;;;;5035184;28;20451;-71
2023/07/19 00:39:11;;;;;;;5.73;4.40;;;18.10;99.90;;;;;;5036602;28;20804;-71
2023/07/19 00:41:40;;;;;;;4.80;4.40;;;18.10;99.90;;;;;;5035183;28;20438;-71
2023/07/19 00:44:08;;;;;;;4.50;4.10;;;18.10;99.90;;;;;;5035143;28;20479;-71
2023/07/19 00:46:38;;;;;;;4.17;3.77;;;18.10;99.90;;;;;;5035281;28;20432;-71
2023/07/19 00:49:10;;;;;;;3.60;3.30;;;18.10;99.90;;;;;;5036285;28;20414;-71
2023/07/19 00:51:39;;;;;;;4.10;3.80;;;18.10;99.90;;;;;;5036493;28;20509;-71
2023/07/19 00:54:08;;;;;;;4.10;3.80;;;18.10;99.90;;;;;;5034944;28;20493;-71
2023/07/19 00:56:37;;;;;;;5.30;3.93;;;18.10;99.90;;;;;;5034867;28;20447;-71
2023/07/19 00:59:06;;;;;;;4.97;4.03;;;18.10;99.90;;;;;;5033972;28;20481;-71
2023/07/19 01:01:35;;;;;;;4.13;3.73;;;18.10;99.90;;;;;;5034695;28;20561;-71
2023/07/19 01:04:06;;;;;;;4.40;3.50;;;18.10;99.90;;;;;;5035089;28;20854;-71
2023/07/19 01:06:36;;;;;;;4.00;3.60;;;18.10;99.90;;;;;;5036093;28;20776;-71
2023/07/19 01:09:04;;;;;;;3.77;3.43;;;18.10;99.90;;;;;;5036025;28;20434;-71
2023/07/19 01:11:32;;;;;;;4.80;3.90;;;18.00;99.90;;;;;;5035733;28;20458;-71
2023/07/19 01:14:00;;;;;;;5.93;4.20;;;18.00;99.90;;;;;;5034632;28;20497;-71
2023/07/19 01:16:29;;;;;;;5.50;3.83;;;18.00;99.90;;;;;;5035776;28;20529;-71
2023/07/19 01:18:57;;;;;;;4.23;3.57;;;18.00;99.90;;;;;;5034521;28;20477;-71
2023/07/19 01:21:25;;;;;;;4.83;4.40;;;18.00;99.90;;;;;;5034415;28;20512;-71
2023/07/19 01:23:58;;;;;;;4.53;4.13;;;18.00;99.90;;;;;;5035677;28;20978;-71
2023/07/19 01:26:26;;;;;;;7.07;4.20;;;18.00;99.90;;;;;;5035973;28;20439;-71
2023/07/19 01:28:57;;;;;;;4.40;4.03;;;17.90;99.90;;;;;;5035838;28;20500;-71
2023/07/19 01:31:25;;;;;;;5.30;4.60;;;17.90;99.90;;;;;;5034176;28;20505;-71
2023/07/19 01:33:55;;;;;;;4.67;4.27;;;17.90;99.90;;;;;;5036035;28;20485;-71
2023/07/19 01:36:25;;;;;;;5.00;4.40;;;17.90;99.90;;;;;;5034453;28;20451;-71
2023/07/19 01:38:54;;;;;;;5.23;4.70;;;17.90;99.90;;;;;;5034037;28;20960;-71
2023/07/19 01:41:23;;;;;;;6.43;4.50;;;17.90;99.90;;;;;;5033967;28;20470;-71
2023/07/19 01:43:51;;;;;;;5.07;4.57;;;17.90;99.90;;;;;;5033996;28;21046;-71
2023/07/19 01:46:20;;;;;;;4.37;3.97;;;17.90;99.90;;;;;;5035468;28;20417;-71
2023/07/19 01:48:48;;;;;;;4.67;3.90;;;17.90;99.90;;;;;;5034151;28;20446;-71
2023/07/19 01:51:16;;;;;;;5.67;4.30;;;17.80;99.90;;;;;;5035097;28;20509;-71
2023/07/19 01:53:44;;;;;;;4.77;4.30;;;17.80;99.90;;;;;;5033804;28;20439;-71
2023/07/19 01:56:13;;;;;;;5.33;4.17;;;17.80;99.90;;;;;;5033809;28;20443;-71
2023/07/19 01:58:42;;;;;;;6.10;4.60;;;17.80;99.90;;;;;;5033700;28;20525;-71
2023/07/19 02:01:11;;;;;;;6.60;5.10;;;17.80;99.90;;;;;;5033698;28;20490;-71
2023/07/19 02:03:39;;;;;;;5.77;5.23;;;17.80;99.90;;;;;;5033669;28;20514;-71
2023/07/19 02:06:07;;;;;;;5.00;4.60;;;17.80;99.90;;;;;;5033601;28;20482;-71
2023/07/19 02:08:35;;;;;;;5.10;4.70;;;17.80;99.90;;;;;;5033469;28;21066;-71
2023/07/19 02:11:04;;;;;;;5.33;4.70;;;17.80;99.90;;;;;;5034715;28;20437;-71
2023/07/19 02:13:32;;;;;;;4.90;4.40;;;17.80;99.90;;;;;;5033529;28;20447;-71
2023/07/19 02:16:01;;;;;;;5.43;4.57;;;17.70;99.90;;;;;;5033364;28;20462;-71
2023/07/19 02:18:29;;;;;;;4.60;4.20;;;17.70;99.90;;;;;;5033306;28;20467;-71
2023/07/19 02:20:58;;;;;;;4.70;4.30;;;17.70;99.90;;;;;;5034601;28;20456;-71
2023/07/19 02:23:26;;;;;;;5.37;4.73;;;17.70;99.90;;;;;;5033270;28;20458;-71
2023/07/19 02:25:54;;;;;;;5.40;4.90;;;17.70;99.90;;;;;;5033580;28;20885;-71
2023/07/19 02:28:22;;;;;;;4.50;4.10;;;17.70;99.90;;;;;;5033134;28;20783;-71
2023/07/19 02:30:51;;;;;;;5.20;4.10;;;17.60;99.90;;;;;;5033018;28;20491;-71
2023/07/19 02:33:20;;;;;;;5.87;5.20;;;17.60;99.90;;;;;;5033232;28;20434;-71
2023/07/19 02:35:53;;;;;;;4.90;4.60;;;17.60;99.90;;;;;;5034299;28;20935;-72
2023/07/19 02:38:22;;;;;;;5.40;4.80;;;17.60;99.90;;;;;;5034330;28;20455;-71
2023/07/19 02:40:50;;;;;;;4.80;4.20;;;17.60;99.90;;;;;;5032957;28;20550;-71
2023/07/19 02:43:18;;;;;;;5.67;4.83;;;17.60;99.90;;;;;;5033213;28;20447;-71
2023/07/19 02:45:47;;;;;;;6.07;5.57;;;17.60;99.90;;;;;;5034369;28;20487;-71
2023/07/19 02:48:15;;;;;;;5.43;4.93;;;17.60;99.90;;;;;;5034371;28;20413;-71
2023/07/19 02:50:46;;;;;;;4.73;4.30;;;17.50;99.90;;;;;;5032753;28;20520;-71
2023/07/19 02:53:15;;;;;;;5.50;5.00;;;17.50;99.90;;;;;;5032927;28;20431;-71
2023/07/19 02:55:44;;;;;;;7.67;5.10;;;17.50;99.90;;;;;;5034052;28;20462;-71
2023/07/19 02:58:12;;;;;;;5.00;4.50;;;17.50;99.90;;;;;;5032634;28;20983;-71
2023/07/19 03:00:41;;;;;;;5.57;4.87;;;17.50;99.90;;;;;;5032567;28;20470;-71
2023/07/19 03:03:10;;;;;;;6.43;5.83;;;17.50;99.90;;;;;;5032515;28;20453;-71
2023/07/19 03:05:40;;;;;;;6.37;5.60;;;17.50;99.90;;;;;;5034126;28;20427;-71
2023/07/19 03:08:09;;;;;;;5.30;4.80;;;17.50;99.90;;;;;;5034281;28;20439;-71
2023/07/19 03:10:39;;;;;;;6.67;6.07;;;17.50;99.90;;;;;;5032373;28;21102;-71
2023/07/19 03:13:07;;;;;;;7.33;6.63;;;17.50;99.90;;;;;;5032515;28;20422;-71
2023/07/19 03:15:36;;;;;;;7.43;6.80;;;17.50;99.90;;;;;;5032375;28;20445;-71
2023/07/19 03:18:04;;;;;;;10.03;7.43;;;17.40;99.90;;;;;;5032402;28;20458;-71
2023/07/19 03:20:33;;;;;;;7.57;6.87;;;17.50;99.90;;;;;;5032409;28;20538;-71
2023/07/19 03:23:01;;;;;;;7.40;6.80;;;17.40;99.90;;;;;;5033345;28;20443;-71
2023/07/19 03:25:31;;;;;;;8.27;6.90;;;17.40;99.90;;;;;;5032193;28;20453;-71
2023/07/19 03:28:00;;;;;;;8.03;7.30;;;17.40;99.90;;;;;;5032108;28;20956;-71
2023/07/19 03:30:28;;;;;;;7.97;7.27;;;17.40;99.90;;;;;;5031950;28;20553;-71
2023/07/19 03:32:58;;;;;;;8.00;7.30;;;17.40;99.90;;;;;;5033433;28;20415;-71
2023/07/19 03:35:27;;;;;;;8.70;7.90;;;17.40;99.90;;;;;;5032115;28;20512;-71
2023/07/19 03:37:56;;;;;;;8.43;7.70;;;17.40;99.90;;;;;;5031967;28;20461;-71
2023/07/19 03:40:25;;;;;;;9.27;8.40;;;17.40;99.90;;;;;;5031845;28;20464;-71
2023/07/19 03:42:55;;;;;;;9.83;9.03;;;17.40;99.90;;;;;;5032036;28;20416;-71
2023/07/19 03:45:25;;;;;;;9.70;8.70;;;17.40;99.90;;;;;;5031959;28;20417;-71
2023/07/19 03:47:55;;;;;;;9.37;8.57;;;17.40;99.90;;;;;;5032027;28;20436;-71
2023/07/19 03:50:25;;;;;;;9.50;8.70;;;17.40;99.90;;;;;;5031892;28;20572;-71
2023/07/19 03:52:54;;;;;;;9.30;8.50;;;17.40;99.90;;;;;;5031940;28;20438;-71
2023/07/19 03:55:22;;;;;;;11.03;10.03;;;17.40;99.90;;;;;;5031918;28;20447;-71
2023/07/19 03:57:50;;;;;;;11.00;10.10;;;17.40;99.90;;;;;;5031862;28;20421;-71
2023/07/19 04:00:21;;;;;;;10.33;9.63;;;17.40;99.90;;;;;;5031820;28;20483;-71
2023/07/19 04:02:50;;;;;;;11.63;10.53;;;17.40;99.90;;;;;;5031835;28;20427;-71
2023/07/19 04:05:18;;;;;;;10.03;9.23;;;17.40;99.90;;;;;;5032072;28;20443;-71
2023/07/19 04:07:46;;;;;;;10.27;9.37;;;17.40;99.90;;;;;;5031830;28;20483;-71
2023/07/19 04:10:15;;;;;;;10.63;9.60;;;17.30;99.90;;;;;;5032946;28;20987;-71
2023/07/19 04:12:43;;;;;;;10.80;9.90;;;17.30;99.90;;;;;;5033209;28;20444;-71
2023/07/19 04:15:12;;;;;;;10.40;9.60;;;17.40;99.90;;;;;;5032561;28;20451;-71
2023/07/19 04:17:41;;;;;;;11.83;10.73;;;17.30;99.90;;;;;;5031725;28;20441;-71
2023/07/19 04:20:11;;;;;;;11.53;10.43;;;17.30;99.90;;;;;;5031554;28;20532;-71
2023/07/19 04:22:40;;;;;;;11.73;10.53;;;17.30;99.90;;;;;;5031618;28;20999;-71
2023/07/19 04:25:09;;;;;;;12.53;11.43;;;17.30;99.90;;;;;;5031602;28;20489;-70
2023/07/19 04:27:37;;;;;;;12.67;11.67;;;17.20;99.90;;;;;;5031547;28;20425;-71
2023/07/19 04:30:08;;;;;;;11.60;10.60;;;17.20;99.90;;;;;;5031524;28;20525;-71
2023/07/19 04:32:36;;;;;;;13.93;12.63;;;17.20;99.90;;;;;;5032822;28;20435;-71
2023/07/19 04:35:07;;;;;;;13.17;12.07;;;17.20;99.90;;;;;;5033442;28;20425;-71
2023/07/19 04:37:38;;;;;;;11.87;10.87;;;17.20;99.90;;;;;;5035553;28;20455;-71
2023/07/19 04:40:08;;;;;;;11.47;10.53;;;17.20;99.90;;;;;;5035031;28;20478;-71
2023/07/19 04:42:39;;;;;;;11.53;10.57;;;17.20;99.90;;;;;;5035133;28;20504;-71
2023/07/19 04:45:09;;;;;;;12.90;11.63;;;17.20;99.90;;;;;;5035073;28;20478;-71
2023/07/19 04:47:38;;;;;;;11.93;10.83;;;17.20;99.90;;;;;;5035074;28;20449;-71
2023/07/19 04:50:11;;;;;;;13.57;10.20;;;17.20;99.90;;;;;;5034999;28;20473;-71
2023/07/19 04:52:40;;;;;;;11.83;10.83;;;17.20;99.90;;;;;;5035022;28;20918;-71
2023/07/19 04:55:09;;;;;;;11.00;10.10;;;17.20;99.90;;;;;;5034999;28;20510;-71
2023/07/19 04:57:38;;;;;;;12.17;11.20;;;17.20;99.90;;;;;;5035120;28;20417;-71
2023/07/19 05:00:11;;;;;;;10.97;10.10;;;17.20;99.90;;;;;;5034724;28;20625;-70
2023/07/19 05:02:40;;;;;;;12.93;11.67;;;17.30;99.90;;;;;;5034940;28;20872;-70
2023/07/19 05:05:12;;;;;;;11.60;10.60;;;17.30;99.90;;;;;;5034694;28;20421;-71
2023/07/19 05:07:40;;;;;;;10.40;9.60;;;17.30;99.90;;;;;;5036320;28;20419;-70
2023/07/19 05:10:09;;;;;;;11.07;9.90;;;17.30;99.90;;;;;;5034455;28;20955;-71
2023/07/19 05:12:38;;;;;;;10.57;9.67;;;17.30;99.90;;;;;;5035901;28;21002;-70
2023/07/19 05:15:07;;;;;;;11.83;10.83;;;17.20;99.90;;;;;;5035873;28;20448;-70
2023/07/19 05:17:36;;;;;;;10.13;9.33;;;17.30;99.90;;;;;;5036014;28;20784;-70
2023/07/19 05:20:06;;;;;;;10.80;9.80;;;17.30;99.90;;;;;;5034632;28;20483;-70
2023/07/19 05:22:37;;;;;;;9.60;8.80;;;17.30;99.90;;;;;;5035903;28;20408;-70
2023/07/19 05:25:06;;;;;;;10.53;9.70;;;17.30;99.90;;;;;;5034344;28;20436;-71
2023/07/19 05:27:34;;;;;;;9.53;8.60;;;17.30;99.90;;;;;;5036187;28;20431;-70
2023/07/19 05:30:03;;;;;;;9.40;8.50;;;17.30;99.90;;;;;;5035720;28;20444;-70
2023/07/19 05:32:31;;;;;;;9.40;8.57;;;17.30;99.90;;;;;;5035751;28;20522;-70
2023/07/19 05:34:59;;;;;;;9.00;8.13;;;17.30;99.90;;;;;;5035666;28;20959;-70
2023/07/19 05:37:28;;;;;;;9.70;8.90;;;17.30;99.90;;;;;;5035674;28;20464;-70
2023/07/19 05:39:58;;;;;;;9.20;8.40;;;17.30;99.90;;;;;;5035279;28;20890;-70
2023/07/19 05:42:26;;;;;;;8.83;8.10;;;17.30;99.90;;;;;;5035330;28;20414;-71
2023/07/19 05:44:55;;;;;;;9.20;8.30;;;17.30;99.90;;;;;;5034963;28;20864;-70
2023/07/19 05:47:23;;;;;;;9.10;8.40;;;17.40;99.90;;;;;;5035303;28;20850;-71
2023/07/19 05:49:52;;;;;;;9.20;8.40;;;17.40;99.90;;;;;;5035554;28;20500;-71
2023/07/19 05:52:20;;;;;;;9.33;8.33;;;17.40;99.90;;;;;;5035144;28;20803;-70
2023/07/19 05:54:48;;;;;;;9.13;8.23;;;17.40;99.90;;;;;;5035089;28;20421;-71
2023/07/19 05:57:17;;;;;;;8.60;7.70;;;17.50;99.90;;;;;;5035058;28;20591;-71
2023/07/19 05:59:45;;;;;;;9.33;8.53;;;17.50;99.90;;;;;;5035076;28;20430;-70
2023/07/19 06:02:14;;;;;;;9.07;8.10;;;17.50;99.90;;;;;;5034959;28;20439;-70
2023/07/19 06:04:42;;;;;;;9.77;8.87;;;17.50;99.90;;;;;;5034918;28;20477;-71
2023/07/19 06:07:11;;;;;;;10.00;9.20;;;17.50;99.90;;;;;;5035175;28;20973;-70
2023/07/19 06:09:39;;;;;;;9.30;8.40;;;17.60;99.90;;;;;;5034959;28;20466;-71
2023/07/19 06:12:08;;;;;;;8.80;8.00;;;17.60;99.90;;;;;;5034971;28;20510;-71
2023/07/19 06:14:37;;;;;;;9.43;8.47;;;17.60;99.90;;;;;;5034998;28;20443;-71
2023/07/19 06:17:06;;;;;;;8.93;8.07;;;17.60;99.90;;;;;;5034726;28;20421;-71
2023/07/19 06:19:34;;;;;;;9.10;8.20;;;17.70;99.90;;;;;;5034968;28;20471;-71
2023/07/19 06:22:02;;;;;;;8.23;7.43;;;17.70;99.90;;;;;;5034638;28;20537;-71
2023/07/19 06:24:31;;;;;;;10.80;9.80;;;17.70;99.90;;;;;;5034579;28;20836;-71
2023/07/19 06:26:59;;;;;;;9.53;8.63;;;17.70;99.90;;;;;;5034862;28;20435;-71
2023/07/19 06:29:27;;;;;;;9.10;8.27;;;17.70;99.90;;;;;;5034467;28;20526;-71
2023/07/19 06:31:56;;;;;;;9.67;8.77;;;17.80;99.90;;;;;;5034461;28;20435;-71
2023/07/19 06:34:25;;;;;;;9.60;8.77;;;17.80;99.90;;;;;;5034467;28;20454;-71
2023/07/19 06:36:53;;;;;;;9.30;8.60;;;17.80;99.90;;;;;;5033036;28;20443;-71
2023/07/19 06:39:21;;;;;;;9.73;8.80;;;17.90;99.90;;;;;;5034542;28;20457;-71
2023/07/19 06:41:50;;;;;;;8.83;8.03;;;17.90;99.90;;;;;;5034761;28;20462;-71
2023/07/19 06:44:18;;;;;;;8.80;8.00;;;17.90;99.90;;;;;;5034175;28;20450;-71
2023/07/19 06:46:46;;;;;;;8.40;7.67;;;18.00;99.90;;;;;;5034697;28;20950;-71
2023/07/19 06:49:16;;;;;;;9.27;8.30;;;18.00;99.90;;;;;;5034051;28;20940;-71
2023/07/19 06:51:44;;;;;;;10.60;8.40;;;18.10;99.90;;;;;;5033957;28;20497;-70
2023/07/19 06:54:12;;;;;;;9.70;8.80;;;18.10;99.90;;;;;;5032742;28;20447;-71
2023/07/19 06:56:43;;;;;;;8.13;7.43;;;18.10;99.90;;;;;;5033755;28;20430;-71
2023/07/19 06:59:11;;;;;;;8.73;7.93;;;18.20;99.90;;;;;;5033769;28;20932;-71
2023/07/19 07:01:39;;;;;;;8.53;7.70;;;18.30;99.90;;;;;;5034845;28;20470;-71
2023/07/19 07:04:08;;;;;;;9.97;9.10;;;18.40;99.90;;;;;;5034356;28;20434;-71
2023/07/19 07:06:38;;;;;;;11.87;10.63;;;18.70;99.90;;;;;;5032910;28;20471;-70
2023/07/19 07:09:06;;;;;;;8.00;7.23;;;18.80;99.90;;;;;;5033930;28;20431;-71
2023/07/19 07:11:34;;;;;;;8.60;7.73;;;19.00;99.90;;;;;;5033928;28;20573;-72
2023/07/19 07:14:02;;;;;;;8.00;7.30;;;19.10;99.90;;;;;;5034133;28;20471;-71
2023/07/19 07:16:30;;;;;;;7.97;7.23;;;19.10;99.90;;;;;;5033008;28;20859;-71
2023/07/19 07:18:59;;;;;;;8.17;7.37;;;19.20;99.90;;;;;;5034053;28;20872;-71
2023/07/19 07:21:27;;;;;;;8.37;7.67;;;19.20;99.90;;;;;;5033650;28;20477;-71
2023/07/19 07:23:56;;;;;;;8.70;8.00;;;19.30;99.90;;;;;;5033678;28;20446;-72
2023/07/19 07:26:25;;;;;;;8.70;7.90;;;19.30;99.90;;;;;;5032458;28;20971;-71
2023/07/19 07:28:53;;;;;;;9.33;8.53;;;19.30;99.90;;;;;;5033997;28;20799;-71
2023/07/19 07:31:21;;;;;;;8.20;7.50;;;19.30;99.90;;;;;;5032185;28;20524;-71
2023/07/19 07:33:50;;;;;;;11.33;9.27;;;19.20;99.90;;;;;;5032354;28;20439;-71
2023/07/19 07:36:18;;;;;;;9.73;8.83;;;19.20;99.90;;;;;;5033891;28;20439;-71
2023/07/19 07:38:48;;;;;;;10.93;8.50;;;19.30;99.90;;;;;;5033868;28;20467;-71
2023/07/19 07:41:17;;;;;;;8.83;8.00;;;19.30;99.90;;;;;;5032187;28;20565;-71
2023/07/19 07:43:45;;;;;;;9.93;9.10;;;19.30;99.90;;;;;;5032360;28;20464;-71
2023/07/19 07:46:14;;;;;;;10.13;9.23;;;19.30;99.90;;;;;;5033647;28;20442;-71
2023/07/19 07:48:42;;;;;;;10.60;8.83;;;19.40;99.90;;;;;;5033694;28;20435;-71
2023/07/19 07:51:10;;;;;;;11.10;10.17;;;19.40;99.90;;;;;;5032300;28;20828;-71
2023/07/19 07:53:39;;;;;;;10.97;10.00;;;19.50;99.90;;;;;;5033462;28;20431;-72
2023/07/19 07:56:07;;;;;;;11.90;10.80;;;19.50;99.90;;;;;;5033616;28;20455;-72
2023/07/19 07:58:36;;;;;;;10.73;9.93;;;19.50;99.90;;;;;;5033724;28;20866;-72
2023/07/19 08:01:04;;;;;;;12.27;11.07;;;19.50;99.90;;;;;;5033235;28;20501;-72
2023/07/19 08:03:33;;;;;;;10.67;9.77;;;19.60;99.90;;;;;;5032000;28;20438;-71
2023/07/19 08:06:04;;;;;;;12.00;10.90;;;19.50;99.90;;;;;;5032162;28;20447;-72
2023/07/19 08:08:32;;;;;;;11.53;10.57;;;19.60;99.90;;;;;;5033302;28;20438;-72
2023/07/19 08:11:04;;;;;;;11.90;10.90;;;19.60;99.90;;;;;;5037576;28;20466;-72
2023/07/19 08:13:33;;;;;;;12.47;11.57;;;19.70;99.90;;;;;;5037490;28;20778;-71
2023/07/19 08:16:06;;;;;;;12.37;11.37;;;19.60;99.90;;;;;;5037363;28;20442;-71
2023/07/19 08:18:34;;;;;;;12.90;11.70;;;19.70;99.90;;;;;;5037226;28;20481;-71
2023/07/19 08:21:02;;;;;;;10.80;9.90;;;19.70;99.90;;;;;;5035505;28;20467;-71
2023/07/19 08:23:30;;;;;;;11.63;10.60;;;19.80;99.90;;;;;;5037076;28;20521;-72
2023/07/19 08:25:59;;;;;;;13.53;12.23;;;19.90;99.90;;;;;;5035906;28;20529;-72
2023/07/19 08:28:29;;;;;;;11.90;10.90;;;20.10;99.90;;;;;;5035639;28;20944;-72
2023/07/19 08:30:57;;;;;;;11.23;10.27;;;20.10;99.90;;;;;;5036728;28;20878;-72
2023/07/19 08:33:28;;;;;;;12.20;10.70;;;20.20;99.90;;;;;;5036725;28;20440;-72
2023/07/19 08:35:56;;;;;;;11.97;10.90;;;20.30;99.90;;;;;;5036940;28;20433;-71
2023/07/19 08:38:24;;;;;;;11.57;10.53;;;20.20;99.90;;;;;;5036549;28;20442;-71
2023/07/19 08:41:00;;;;;;;11.50;10.40;;;20.20;99.90;;;;;;5037278;28;20451;-73
2023/07/19 08:43:29;;;;;;;10.60;9.60;;;20.30;99.90;;;;;;5036909;28;20461;-72
2023/07/19 08:45:57;;;;;;;9.90;9.00;;;20.30;99.90;;;;;;5035169;28;20534;-72
2023/07/19 08:48:27;;;;;;;9.67;8.87;;;20.40;99.90;;;;;;5035660;28;20451;-71
2023/07/19 08:50:59;;;;;;;9.77;8.77;;;20.40;99.90;;;;;;5036727;28;20458;-71
2023/07/19 08:53:28;;;;;;;7.13;6.43;;;20.40;99.90;;;;;;5035085;28;20960;-71
2023/07/19 08:55:57;;;;;;;6.17;5.67;;;20.50;99.90;;;;;;5036837;28;20453;-72
2023/07/19 08:58:25;;;;;;;7.37;5.40;;;20.50;99.90;;;;;;5036508;28;20999;-72
2023/07/19 09:01:28;;;;;;;5.00;3.97;;;20.50;99.90;;;;;;5036406;28;20558;-72
2023/07/19 09:04:09;;;;;;;4.73;3.97;;;20.50;99.90;;;;;;5034805;28;20435;-72
2023/07/19 09:06:37;;;;;;;5.20;4.13;;;20.60;99.90;;;;;;5036470;28;20907;-72
2023/07/19 09:09:05;;;;;;;4.30;3.90;;;20.60;99.90;;;;;;5035990;28;20443;-72
2023/07/19 09:11:33;;;;;;;5.30;4.03;;;20.60;99.90;;;;;;5034535;28;21006;-71
2023/07/19 09:14:01;;;;;;;6.80;4.20;;;20.60;99.90;;;;;;5036467;28;20471;-71
2023/07/19 09:16:31;;;;;;;6.50;4.00;;;20.70;99.90;;;;;;5036670;28;20585;-72
2023/07/19 09:19:00;;;;;;;5.17;4.73;;;20.80;99.90;;;;;;5036744;28;20489;-73
2023/07/19 09:21:37;;;;;;;6.40;5.80;;;20.90;99.90;;;;;;5037134;28;20964;-72
2023/07/19 09:24:07;;;;;;;7.10;6.23;;;21.00;99.90;;;;;;5035619;28;20438;-72
2023/07/19 09:26:45;;;;;;;6.23;5.73;;;21.10;99.90;;;;;;5035949;28;20478;-73
2023/07/19 09:29:14;;;;;;;5.93;4.90;;;21.10;99.90;;;;;;5036863;28;20422;-72
2023/07/19 09:31:55;;;;;;;4.57;4.13;;;21.20;99.90;;;;;;5036569;28;20450;-73
2023/07/19 09:34:26;;;;;;;8.43;3.57;;;21.20;99.90;;;;;;5036599;28;20837;-73
2023/07/19 09:36:56;;;;;;;6.13;3.50;;;21.20;99.90;;;;;;5035562;28;20936;-72
2023/07/19 09:39:24;;;;;;;4.80;3.60;;;21.20;99.90;;;;;;5036379;28;20439;-72
2023/07/19 09:41:54;;;;;;;6.30;3.60;;;21.10;99.90;;;;;;5036975;28;20467;-72
2023/07/19 09:44:22;;;;;;;4.00;3.50;;;21.10;99.90;;;;;;5036376;28;20845;-72
2023/07/19 09:46:51;;;;;;;4.20;3.40;;;21.10;99.90;;;;;;5036305;28;20435;-72
2023/07/19 09:49:19;;;;;;;5.93;4.13;;;21.00;99.90;;;;;;5035990;28;21029;-72
2023/07/19 09:51:49;;;;;;;4.40;4.00;;;21.00;99.90;;;;;;5036929;28;20443;-72
2023/07/19 09:54:19;;;;;;;5.70;4.17;;;21.00;99.90;;;;;;5036093;28;20437;-72
2023/07/19 09:56:47;;;;;;;5.30;3.93;;;21.00;99.90;;;;;;5036192;28;20441;-72
2023/07/19 09:59:19;;;;;;;5.93;4.73;;;21.10;99.90;;;;;;5036418;28;20438;-72
2023/07/19 10:01:48;;;;;;;4.33;3.90;;;21.10;99.90;;;;;;5036137;28;20419;-72
2023/07/19 10:04:28;;;;;;;7.10;5.07;;;21.20;99.90;;;;;;5036059;28;20866;-72
2023/07/19 10:07:10;;;;;;;5.80;4.20;;;21.30;99.90;;;;;;5034890;28;20447;-72
2023/07/19 10:09:41;;;;;;;4.73;4.33;;;21.30;99.90;;;;;;5035772;28;20420;-73
2023/07/19 10:12:24;;;;;;;4.87;4.47;;;21.30;99.90;;;;;;5035974;28;20415;-72
2023/07/19 10:14:54;;;;;;;8.07;5.10;;;21.30;99.90;;;;;;5036216;28;20454;-72
2023/07/19 10:17:23;;;;;;;6.40;5.27;;;21.30;99.90;;;;;;5036203;28;20492;-72
2023/07/19 10:20:14;;;;;;;6.93;5.90;;;21.30;99.90;;;;;;5034369;28;20463;-72
2023/07/19 10:22:52;;;;;;;6.10;4.87;;;21.20;99.90;;;;;;5032519;28;20553;-72
2023/07/19 10:25:31;;;;;;;4.30;3.90;;;21.20;99.90;;;;;;5034944;28;20447;-72
2023/07/19 10:28:05;;;;;;;6.07;5.00;;;21.20;99.90;;;;;;5035893;28;20454;-72
2023/07/19 10:30:52;;;;;;;7.03;5.30;;;21.20;99.90;;;;;;5035775;28;20455;-72
2023/07/19 10:33:22;;;;;;;4.93;4.43;;;21.30;99.90;;;;;;5033918;28;20447;-72
2023/07/19 10:35:52;;;;;;;5.13;4.63;;;21.30;99.90;;;;;;5033707;28;20451;-72
2023/07/19 10:38:22;;;;;;;7.13;4.00;;;21.30;99.90;;;;;;5034279;28;20435;-72
2023/07/19 10:40:56;;;;;;;3.80;3.50;;;21.30;99.90;;;;;;5034189;28;20466;-72
2023/07/19 10:43:26;;;;;;;4.80;4.30;;;21.30;99.90;;;;;;5034218;28;20553;-72
2023/07/19 10:46:14;;;;;;;3.33;2.90;;;21.40;99.90;;;;;;5034423;28;20442;-72
2023/07/19 10:48:42;;;;;;;4.50;3.53;;;21.40;99.90;;;;;;5034147;28;20446;-73
2023/07/19 10:51:11;;;;;;;3.50;3.07;;;21.40;99.90;;;;;;5032717;28;20497;-72
2023/07/19 10:53:44;;;;;;;4.33;3.27;;;21.50;99.90;;;;;;5034059;28;20435;-72
2023/07/19 10:56:16;;;;;;;5.37;3.33;;;21.50;99.90;;;;;;5034074;28;20767;-72
2023/07/19 10:58:45;;;;;;;5.03;2.87;;;21.50;99.90;;;;;;5034370;28;20459;-72
2023/07/19 11:01:13;;;;;;;6.73;3.17;;;21.50;99.90;;;;;;5033838;28;20477;-72
2023/07/19 11:03:46;;;;;;;4.53;2.57;;;21.50;99.90;;;;;;5034316;28;20566;-72
2023/07/19 11:06:15;;;;;;;4.83;2.60;;;21.50;99.90;;;;;;5034168;28;20455;-72
2023/07/19 11:08:44;;;;;;;3.67;2.60;;;21.50;99.90;;;;;;5034016;28;20446;-72
2023/07/19 11:11:15;;;;;;;5.43;3.20;;;21.50;99.90;;;;;;5032364;28;21074;-72
2023/07/19 11:13:45;;;;;;;4.80;2.70;;;21.40;99.90;;;;;;5033975;28;20419;-72
2023/07/19 11:16:13;;;;;;;4.70;3.17;;;21.40;99.90;;;;;;5033861;28;20439;-72
2023/07/19 11:18:42;;;;;;;5.90;2.73;;;21.30;99.90;;;;;;5034193;28;20454;-72
2023/07/19 11:21:10;;;;;;;5.77;3.63;;;21.30;99.90;;;;;;5032395;28;20466;-72
2023/07/19 11:23:41;;;;;;;4.90;3.40;;;21.20;99.90;;;;;;5032261;28;20471;-72
2023/07/19 11:26:12;;;;;;;5.23;2.70;;;21.20;99.90;;;;;;5033589;28;20419;-72
2023/07/19 11:28:46;;;;;;;5.63;3.00;;;21.20;99.90;;;;;;5034071;28;20466;-72
2023/07/19 11:31:31;;;;;;;3.33;3.03;;;21.20;99.90;;;;;;5032158;28;20506;-72
2023/07/19 11:34:06;;;;;;;3.93;2.80;;;21.20;99.90;;;;;;5033649;28;20430;-72
2023/07/19 11:36:35;;;;;;;2.90;2.60;;;21.20;99.90;;;;;;5033397;28;20514;-72
2023/07/19 11:39:03;;;;;;;5.50;2.87;;;21.20;99.90;;;;;;5033325;28;20522;-72
2023/07/19 11:41:32;;;;;;;4.00;3.10;;;21.20;99.90;;;;;;5031991;28;20462;-72
2023/07/19 11:44:02;;;;;;;3.97;2.93;;;21.20;99.90;;;;;;5033110;28;20473;-72
2023/07/19 11:46:30;;;;;;;3.60;2.50;;;21.20;99.90;;;;;;5033618;28;20773;-72
2023/07/19 11:48:58;;;;;;;4.43;2.70;;;21.20;99.90;;;;;;5033841;28;20450;-72
2023/07/19 11:51:27;;;;;;;3.70;2.90;;;21.30;99.90;;;;;;5033172;28;20463;-72
2023/07/19 11:53:56;;;;;;;4.30;2.80;;;21.30;99.90;;;;;;5033406;28;20431;-72
2023/07/19 11:56:25;;;;;;;3.30;2.87;;;21.40;99.90;;;;;;5033169;28;20435;-72
2023/07/19 11:58:56;;;;;;;2.80;2.50;;;21.50;99.90;;;;;;5033782;28;20837;-72
2023/07/19 12:01:27;;;;;;;4.50;3.13;;;21.60;99.90;;;;;;5033099;28;20455;-72
2023/07/19 12:03:59;;;;;;;3.20;2.53;;;21.60;99.90;;;;;;5033230;28;20915;-72
2023/07/19 12:06:29;;;;;;;4.13;2.63;;;21.60;99.90;;;;;;5033377;28;20911;-72
2023/07/19 12:08:57;;;;;;;3.80;3.10;;;21.60;99.90;;;;;;5033013;28;20435;-73
2023/07/19 12:11:25;;;;;;;4.40;2.80;;;21.60;99.90;;;;;;5033003;28;20517;-72
2023/07/19 12:13:56;;;;;;;5.03;3.63;;;21.60;99.90;;;;;;5031790;28;20471;-72
2023/07/19 12:16:27;;;;;;;3.43;3.13;;;21.70;99.90;;;;;;5033296;28;20431;-72
2023/07/19 12:18:55;;;;;;;3.30;2.57;;;21.80;99.90;;;;;;5033030;28;20461;-72
2023/07/19 12:21:23;;;;;;;3.67;2.80;;;21.80;99.90;;;;;;5033159;28;20561;-72
2023/07/19 12:23:52;;;;;;;4.73;2.70;;;21.80;99.90;;;;;;5033144;28;20469;-72
2023/07/19 12:26:23;;;;;;;3.37;2.53;;;21.80;99.90;;;;;;5033294;28;20446;-75
2023/07/19 12:28:54;;;;;;;4.10;2.67;;;21.90;99.90;;;;;;5032914;28;20514;-74
2023/07/19 12:31:23;;;;;;;3.40;2.50;;;22.00;99.90;;;;;;5032890;28;20815;-75
2023/07/19 12:33:53;;;;;;;6.03;2.97;;;22.10;99.90;;;;;;5032872;28;20434;-75
2023/07/19 12:36:21;;;;;;;5.40;2.60;;;22.10;99.90;;;;;;5031714;28;20835;-74
2023/07/19 12:38:50;;;;;;;4.20;2.07;;;22.30;99.90;;;;;;5032801;28;20489;-74
2023/07/19 12:41:18;;;;;;;3.43;2.00;;;22.40;99.90;;;;;;5032826;28;20450;-74
2023/07/19 12:43:46;;;;;;;3.60;3.23;;;22.50;99.90;;;;;;5032742;28;21002;-75
2023/07/19 12:46:14;;;;;;;4.13;3.13;;;22.50;99.90;;;;;;5031687;28;20446;-75
2023/07/19 12:48:43;;;;;;;4.10;2.50;;;22.50;99.90;;;;;;5031444;28;20537;-77
2023/07/19 12:51:12;;;;;;;3.50;1.87;;;22.50;99.90;;;;;;5031355;28;20562;-78
2023/07/19 12:53:41;;;;;;;3.60;2.20;;;22.50;99.90;;;;;;5032685;28;20435;-78
2023/07/19 12:56:09;;;;;;;4.43;1.90;;;22.50;99.90;;;;;;5034508;28;20465;-78